sensor_id;sensor_type;location;lat;lon;timestamp;P1;durP1;ratioP1;P2;durP2;ratioP2
19525;SDS011;9907;42.676;26.348;2022-07-22T00:02:23;4.53;;;3.70;;
19525;SDS011;9907;42.676;26.348;2022-07-22T00:04:49;4.57;;;3.20;;
19525;SDS011;9907;42.676;26.348;2022-07-22T00:07:15;4.37;;;3.87;;
19525;SDS011;9907;42.676;26.348;2022-07-22T00:09:41;6.77;;;3.90;;
19525;SDS011;9907;42.676;26.348;2022-07-22T00:12:07;4.90;;;3.50;;
19525;SDS011;9907;42.676;26.348;2022-07-22T00:14:33;5.30;;;3.57;;
19525;SDS011;9907;42.676;26.348;2022-07-22T00:16:58;5.73;;;3.83;;
19525;SDS011;9907;42.676;26.348;2022-07-22T00:19:24;6.63;;;3.50;;
19525;SDS011;9907;42.676;26.348;2022-07-22T00:21:53;7.03;;;3.70;;
19525;SDS011;9907;42.676;26.348;2022-07-22T00:24:18;4.70;;;3.80;;
19525;SDS011;9907;42.676;26.348;2022-07-22T00:26:44;3.90;;;3.47;;
19525;SDS011;9907;42.676;26.348;2022-07-22T00:29:10;5.43;;;3.40;;
19525;SDS011;9907;42.676;26.348;2022-07-22T00:31:35;5.57;;;3.57;;
19525;SDS011;9907;42.676;26.348;2022-07-22T00:34:02;4.43;;;3.50;;
19525;SDS011;9907;42.676;26.348;2022-07-22T00:36:28;3.50;;;3.20;;
19525;SDS011;9907;42.676;26.348;2022-07-22T00:38:54;5.60;;;3.50;;
19525;SDS011;9907;42.676;26.348;2022-07-22T00:41:20;4.07;;;3.27;;
19525;SDS011;9907;42.676;26.348;2022-07-22T00:43:50;3.97;;;3.53;;
19525;SDS011;9907;42.676;26.348;2022-07-22T00:46:19;4.23;;;3.67;;
19525;SDS011;9907;42.676;26.348;2022-07-22T00:48:45;5.53;;;3.87;;
19525;SDS011;9907;42.676;26.348;2022-07-22T00:51:13;4.97;;;3.53;;
19525;SDS011;9907;42.676;26.348;2022-07-22T00:53:39;9.20;;;3.83;;
19525;SDS011;9907;42.676;26.348;2022-07-22T00:56:04;4.30;;;3.90;;
19525;SDS011;9907;42.676;26.348;2022-07-22T00:58:30;4.50;;;3.57;;
19525;SDS011;9907;42.676;26.348;2022-07-22T01:00:56;4.63;;;3.50;;
19525;SDS011;9907;42.676;26.348;2022-07-22T01:03:22;4.43;;;3.73;;
19525;SDS011;9907;42.676;26.348;2022-07-22T01:05:47;4.23;;;3.90;;
19525;SDS011;9907;42.676;26.348;2022-07-22T01:08:13;4.37;;;3.80;;
19525;SDS011;9907;42.676;26.348;2022-07-22T01:10:38;5.50;;;3.27;;
19525;SDS011;9907;42.676;26.348;2022-07-22T01:13:05;4.97;;;3.50;;
19525;SDS011;9907;42.676;26.348;2022-07-22T01:15:31;4.60;;;3.53;;
19525;SDS011;9907;42.676;26.348;2022-07-22T01:17:58;3.87;;;3.57;;
19525;SDS011;9907;42.676;26.348;2022-07-22T01:20:24;4.73;;;3.73;;
19525;SDS011;9907;42.676;26.348;2022-07-22T01:22:50;4.40;;;4.00;;
19525;SDS011;9907;42.676;26.348;2022-07-22T01:25:16;5.83;;;3.60;;
19525;SDS011;9907;42.676;26.348;2022-07-22T01:27:42;7.13;;;4.00;;
19525;SDS011;9907;42.676;26.348;2022-07-22T01:30:08;5.23;;;3.87;;
19525;SDS011;9907;42.676;26.348;2022-07-22T01:32:33;6.53;;;4.90;;
19525;SDS011;9907;42.676;26.348;2022-07-22T01:34:59;8.83;;;5.50;;
19525;SDS011;9907;42.676;26.348;2022-07-22T01:37:25;8.90;;;5.60;;
19525;SDS011;9907;42.676;26.348;2022-07-22T01:39:50;10.87;;;7.07;;
19525;SDS011;9907;42.676;26.348;2022-07-22T01:42:16;5.40;;;4.20;;
19525;SDS011;9907;42.676;26.348;2022-07-22T01:44:41;6.50;;;4.30;;
19525;SDS011;9907;42.676;26.348;2022-07-22T01:47:07;6.13;;;4.27;;
19525;SDS011;9907;42.676;26.348;2022-07-22T01:49:33;6.30;;;4.73;;
19525;SDS011;9907;42.676;26.348;2022-07-22T01:52:00;5.33;;;4.60;;
19525;SDS011;9907;42.676;26.348;2022-07-22T01:54:27;9.43;;;4.90;;
19525;SDS011;9907;42.676;26.348;2022-07-22T01:56:52;6.80;;;4.83;;
19525;SDS011;9907;42.676;26.348;2022-07-22T01:59:18;8.63;;;4.97;;
19525;SDS011;9907;42.676;26.348;2022-07-22T02:01:43;6.17;;;4.70;;
19525;SDS011;9907;42.676;26.348;2022-07-22T02:04:09;6.23;;;4.87;;
19525;SDS011;9907;42.676;26.348;2022-07-22T02:06:34;4.50;;;4.10;;
19525;SDS011;9907;42.676;26.348;2022-07-22T02:09:00;6.37;;;4.67;;
19525;SDS011;9907;42.676;26.348;2022-07-22T02:11:25;4.80;;;4.30;;
19525;SDS011;9907;42.676;26.348;2022-07-22T02:13:51;4.37;;;3.93;;
19525;SDS011;9907;42.676;26.348;2022-07-22T02:16:17;5.80;;;4.03;;
19525;SDS011;9907;42.676;26.348;2022-07-22T02:18:42;4.50;;;3.70;;
19525;SDS011;9907;42.676;26.348;2022-07-22T02:21:08;5.73;;;4.30;;
19525;SDS011;9907;42.676;26.348;2022-07-22T02:23:33;4.00;;;3.60;;
19525;SDS011;9907;42.676;26.348;2022-07-22T02:25:59;5.47;;;3.70;;
19525;SDS011;9907;42.676;26.348;2022-07-22T02:28:24;7.07;;;4.40;;
19525;SDS011;9907;42.676;26.348;2022-07-22T02:30:50;6.77;;;4.20;;
19525;SDS011;9907;42.676;26.348;2022-07-22T02:33:16;4.23;;;3.80;;
19525;SDS011;9907;42.676;26.348;2022-07-22T02:35:41;4.73;;;4.03;;
19525;SDS011;9907;42.676;26.348;2022-07-22T02:38:07;3.67;;;3.37;;
19525;SDS011;9907;42.676;26.348;2022-07-22T02:40:32;5.57;;;3.80;;
19525;SDS011;9907;42.676;26.348;2022-07-22T02:42:58;12.50;;;4.33;;
19525;SDS011;9907;42.676;26.348;2022-07-22T02:45:24;5.53;;;4.27;;
19525;SDS011;9907;42.676;26.348;2022-07-22T02:47:53;6.87;;;4.00;;
19525;SDS011;9907;42.676;26.348;2022-07-22T02:50:21;4.70;;;4.20;;
19525;SDS011;9907;42.676;26.348;2022-07-22T02:52:48;6.17;;;3.97;;
19525;SDS011;9907;42.676;26.348;2022-07-22T02:55:14;5.53;;;3.73;;
19525;SDS011;9907;42.676;26.348;2022-07-22T02:57:40;4.27;;;3.87;;
19525;SDS011;9907;42.676;26.348;2022-07-22T03:00:06;4.70;;;4.13;;
19525;SDS011;9907;42.676;26.348;2022-07-22T03:02:36;6.90;;;3.90;;
19525;SDS011;9907;42.676;26.348;2022-07-22T03:05:02;5.07;;;4.07;;
19525;SDS011;9907;42.676;26.348;2022-07-22T03:07:28;6.00;;;3.80;;
19525;SDS011;9907;42.676;26.348;2022-07-22T03:09:54;5.10;;;4.07;;
19525;SDS011;9907;42.676;26.348;2022-07-22T03:12:21;7.80;;;4.37;;
19525;SDS011;9907;42.676;26.348;2022-07-22T03:14:47;5.37;;;4.07;;
19525;SDS011;9907;42.676;26.348;2022-07-22T03:17:13;4.33;;;3.70;;
19525;SDS011;9907;42.676;26.348;2022-07-22T03:19:40;5.87;;;4.23;;
19525;SDS011;9907;42.676;26.348;2022-07-22T03:22:06;5.53;;;3.87;;
19525;SDS011;9907;42.676;26.348;2022-07-22T03:24:31;6.70;;;4.13;;
19525;SDS011;9907;42.676;26.348;2022-07-22T03:26:57;4.53;;;4.07;;
19525;SDS011;9907;42.676;26.348;2022-07-22T03:29:22;8.37;;;4.20;;
19525;SDS011;9907;42.676;26.348;2022-07-22T03:31:48;4.70;;;4.30;;
19525;SDS011;9907;42.676;26.348;2022-07-22T03:34:14;5.83;;;4.10;;
19525;SDS011;9907;42.676;26.348;2022-07-22T03:36:39;6.70;;;4.80;;
19525;SDS011;9907;42.676;26.348;2022-07-22T03:39:05;5.77;;;4.53;;
19525;SDS011;9907;42.676;26.348;2022-07-22T03:41:30;7.93;;;4.50;;
19525;SDS011;9907;42.676;26.348;2022-07-22T03:43:55;6.57;;;4.10;;
19525;SDS011;9907;42.676;26.348;2022-07-22T03:46:21;5.00;;;4.30;;
19525;SDS011;9907;42.676;26.348;2022-07-22T03:48:46;6.00;;;4.63;;
19525;SDS011;9907;42.676;26.348;2022-07-22T03:51:12;6.17;;;4.57;;
19525;SDS011;9907;42.676;26.348;2022-07-22T03:53:38;7.67;;;4.50;;
19525;SDS011;9907;42.676;26.348;2022-07-22T03:56:03;6.30;;;4.40;;
19525;SDS011;9907;42.676;26.348;2022-07-22T03:58:29;4.40;;;4.00;;
19525;SDS011;9907;42.676;26.348;2022-07-22T04:00:55;5.67;;;4.30;;
19525;SDS011;9907;42.676;26.348;2022-07-22T04:03:20;6.17;;;4.43;;
19525;SDS011;9907;42.676;26.348;2022-07-22T04:05:46;8.57;;;4.60;;
19525;SDS011;9907;42.676;26.348;2022-07-22T04:08:12;7.70;;;4.87;;
19525;SDS011;9907;42.676;26.348;2022-07-22T04:10:38;8.30;;;4.77;;
19525;SDS011;9907;42.676;26.348;2022-07-22T04:13:04;7.37;;;4.57;;
19525;SDS011;9907;42.676;26.348;2022-07-22T04:15:30;6.93;;;4.53;;
19525;SDS011;9907;42.676;26.348;2022-07-22T04:17:56;5.23;;;4.60;;
19525;SDS011;9907;42.676;26.348;2022-07-22T04:20:21;10.90;;;4.30;;
19525;SDS011;9907;42.676;26.348;2022-07-22T04:22:47;7.87;;;4.80;;
19525;SDS011;9907;42.676;26.348;2022-07-22T04:25:12;6.67;;;4.60;;
19525;SDS011;9907;42.676;26.348;2022-07-22T04:27:39;5.43;;;4.60;;
19525;SDS011;9907;42.676;26.348;2022-07-22T04:30:05;6.93;;;4.47;;
19525;SDS011;9907;42.676;26.348;2022-07-22T04:32:31;5.47;;;4.53;;
19525;SDS011;9907;42.676;26.348;2022-07-22T04:34:56;5.93;;;4.17;;
19525;SDS011;9907;42.676;26.348;2022-07-22T04:37:22;6.40;;;4.57;;
19525;SDS011;9907;42.676;26.348;2022-07-22T04:39:47;7.47;;;4.80;;
19525;SDS011;9907;42.676;26.348;2022-07-22T04:42:13;7.00;;;4.63;;
19525;SDS011;9907;42.676;26.348;2022-07-22T04:44:38;7.93;;;4.73;;
19525;SDS011;9907;42.676;26.348;2022-07-22T04:47:04;6.37;;;4.10;;
19525;SDS011;9907;42.676;26.348;2022-07-22T04:49:30;5.10;;;3.80;;
19525;SDS011;9907;42.676;26.348;2022-07-22T04:51:55;8.27;;;4.47;;
19525;SDS011;9907;42.676;26.348;2022-07-22T04:54:21;6.37;;;4.23;;
19525;SDS011;9907;42.676;26.348;2022-07-22T04:56:46;5.80;;;4.33;;
19525;SDS011;9907;42.676;26.348;2022-07-22T04:59:12;5.57;;;4.67;;
19525;SDS011;9907;42.676;26.348;2022-07-22T05:01:37;10.10;;;4.30;;
19525;SDS011;9907;42.676;26.348;2022-07-22T05:04:03;8.17;;;4.03;;
19525;SDS011;9907;42.676;26.348;2022-07-22T05:06:29;7.70;;;3.97;;
19525;SDS011;9907;42.676;26.348;2022-07-22T05:08:55;5.70;;;3.80;;
19525;SDS011;9907;42.676;26.348;2022-07-22T05:11:20;5.17;;;3.70;;
19525;SDS011;9907;42.676;26.348;2022-07-22T05:13:46;6.83;;;3.90;;
19525;SDS011;9907;42.676;26.348;2022-07-22T05:16:11;8.90;;;3.83;;
19525;SDS011;9907;42.676;26.348;2022-07-22T05:18:37;6.03;;;3.80;;
19525;SDS011;9907;42.676;26.348;2022-07-22T05:21:03;5.53;;;3.80;;
19525;SDS011;9907;42.676;26.348;2022-07-22T05:23:29;6.70;;;3.50;;
19525;SDS011;9907;42.676;26.348;2022-07-22T05:25:55;5.67;;;4.00;;
19525;SDS011;9907;42.676;26.348;2022-07-22T05:28:21;4.83;;;3.83;;
19525;SDS011;9907;42.676;26.348;2022-07-22T05:30:47;7.43;;;3.77;;
19525;SDS011;9907;42.676;26.348;2022-07-22T05:33:12;5.07;;;3.43;;
19525;SDS011;9907;42.676;26.348;2022-07-22T05:35:38;4.97;;;4.20;;
19525;SDS011;9907;42.676;26.348;2022-07-22T05:38:03;6.83;;;3.97;;
19525;SDS011;9907;42.676;26.348;2022-07-22T05:40:30;7.20;;;4.00;;
19525;SDS011;9907;42.676;26.348;2022-07-22T05:42:57;5.90;;;3.77;;
19525;SDS011;9907;42.676;26.348;2022-07-22T05:45:22;5.17;;;4.00;;
19525;SDS011;9907;42.676;26.348;2022-07-22T05:47:48;6.43;;;4.00;;
19525;SDS011;9907;42.676;26.348;2022-07-22T05:50:13;5.60;;;3.53;;
19525;SDS011;9907;42.676;26.348;2022-07-22T05:52:41;5.93;;;4.00;;
19525;SDS011;9907;42.676;26.348;2022-07-22T05:55:07;7.33;;;4.17;;
19525;SDS011;9907;42.676;26.348;2022-07-22T05:57:33;8.45;;;4.15;;
19525;SDS011;9907;42.676;26.348;2022-07-22T05:59:59;6.53;;;4.25;;
19525;SDS011;9907;42.676;26.348;2022-07-22T06:02:25;8.82;;;3.95;;
19525;SDS011;9907;42.676;26.348;2022-07-22T06:04:50;6.63;;;3.40;;
19525;SDS011;9907;42.676;26.348;2022-07-22T06:07:16;6.18;;;4.20;;
19525;SDS011;9907;42.676;26.348;2022-07-22T06:09:42;6.07;;;3.65;;
19525;SDS011;9907;42.676;26.348;2022-07-22T06:12:07;7.53;;;4.00;;
19525;SDS011;9907;42.676;26.348;2022-07-22T06:14:33;4.75;;;4.15;;
19525;SDS011;9907;42.676;26.348;2022-07-22T06:17:02;7.47;;;4.07;;
19525;SDS011;9907;42.676;26.348;2022-07-22T06:19:27;5.10;;;4.28;;
19525;SDS011;9907;42.676;26.348;2022-07-22T06:21:54;6.45;;;3.85;;
19525;SDS011;9907;42.676;26.348;2022-07-22T06:24:20;5.53;;;3.70;;
19525;SDS011;9907;42.676;26.348;2022-07-22T06:26:46;4.80;;;3.88;;
19525;SDS011;9907;42.676;26.348;2022-07-22T06:29:11;5.45;;;4.07;;
19525;SDS011;9907;42.676;26.348;2022-07-22T06:53:37;10.52;;;5.43;;
19525;SDS011;9907;42.676;26.348;2022-07-22T06:56:03;8.48;;;5.45;;
19525;SDS011;9907;42.676;26.348;2022-07-22T06:58:29;13.80;;;7.68;;
19525;SDS011;9907;42.676;26.348;2022-07-22T07:00:55;24.23;;;12.40;;
19525;SDS011;9907;42.676;26.348;2022-07-22T07:03:20;13.75;;;8.52;;
19525;SDS011;9907;42.676;26.348;2022-07-22T07:05:47;11.38;;;5.82;;
19525;SDS011;9907;42.676;26.348;2022-07-22T07:08:13;12.88;;;5.13;;
19525;SDS011;9907;42.676;26.348;2022-07-22T07:10:38;14.82;;;6.00;;
19525;SDS011;9907;42.676;26.348;2022-07-22T07:13:04;12.95;;;6.53;;
19525;SDS011;9907;42.676;26.348;2022-07-22T07:15:30;12.77;;;6.43;;
19525;SDS011;9907;42.676;26.348;2022-07-22T07:17:55;10.85;;;6.38;;
19525;SDS011;9907;42.676;26.348;2022-07-22T07:20:22;18.63;;;7.05;;
19525;SDS011;9907;42.676;26.348;2022-07-22T07:22:48;16.02;;;7.25;;
19525;SDS011;9907;42.676;26.348;2022-07-22T07:25:13;19.05;;;7.85;;
19525;SDS011;9907;42.676;26.348;2022-07-22T07:27:39;19.20;;;7.97;;
19525;SDS011;9907;42.676;26.348;2022-07-22T07:30:05;17.98;;;7.43;;
19525;SDS011;9907;42.676;26.348;2022-07-22T08:07:28;11.82;;;6.25;;
19525;SDS011;9907;42.676;26.348;2022-07-22T08:09:54;8.60;;;6.13;;
19525;SDS011;9907;42.676;26.348;2022-07-22T08:12:20;10.73;;;5.75;;
19525;SDS011;9907;42.676;26.348;2022-07-22T08:14:45;9.05;;;5.50;;
19525;SDS011;9907;42.676;26.348;2022-07-22T08:17:11;12.15;;;7.55;;
19525;SDS011;9907;42.676;26.348;2022-07-22T08:19:37;8.43;;;5.40;;
19525;SDS011;9907;42.676;26.348;2022-07-22T08:22:02;8.38;;;5.68;;
19525;SDS011;9907;42.676;26.348;2022-07-22T08:24:28;12.32;;;5.50;;
19525;SDS011;9907;42.676;26.348;2022-07-22T08:26:53;10.20;;;5.78;;
19525;SDS011;9907;42.676;26.348;2022-07-22T08:29:19;10.63;;;5.63;;
19525;SDS011;9907;42.676;26.348;2022-07-22T08:31:44;12.13;;;5.85;;
19525;SDS011;9907;42.676;26.348;2022-07-22T08:34:10;10.50;;;5.57;;
19525;SDS011;9907;42.676;26.348;2022-07-22T08:36:35;8.93;;;5.68;;
19525;SDS011;9907;42.676;26.348;2022-07-22T08:39:01;16.42;;;5.95;;
19525;SDS011;9907;42.676;26.348;2022-07-22T08:41:27;12.27;;;6.35;;
19525;SDS011;9907;42.676;26.348;2022-07-22T08:43:59;10.20;;;5.50;;
19525;SDS011;9907;42.676;26.348;2022-07-22T08:46:25;10.40;;;5.70;;
19525;SDS011;9907;42.676;26.348;2022-07-22T08:48:51;9.07;;;5.95;;
19525;SDS011;9907;42.676;26.348;2022-07-22T08:51:16;9.77;;;7.38;;
19525;SDS011;9907;42.676;26.348;2022-07-22T08:53:42;10.82;;;6.00;;
19525;SDS011;9907;42.676;26.348;2022-07-22T08:56:07;5.90;;;4.95;;
19525;SDS011;9907;42.676;26.348;2022-07-22T08:58:33;7.85;;;5.47;;
19525;SDS011;9907;42.676;26.348;2022-07-22T09:01:08;9.90;;;5.10;;
19525;SDS011;9907;42.676;26.348;2022-07-22T09:03:49;5.97;;;5.22;;
19525;SDS011;9907;42.676;26.348;2022-07-22T09:06:21;7.57;;;5.70;;
19525;SDS011;9907;42.676;26.348;2022-07-22T09:08:54;6.72;;;5.60;;
19525;SDS011;9907;42.676;26.348;2022-07-22T09:11:23;9.00;;;5.20;;
19525;SDS011;9907;42.676;26.348;2022-07-22T09:13:50;9.00;;;5.07;;
19525;SDS011;9907;42.676;26.348;2022-07-22T09:16:18;12.70;;;5.65;;
19525;SDS011;9907;42.676;26.348;2022-07-22T09:19:03;7.93;;;4.85;;
19525;SDS011;9907;42.676;26.348;2022-07-22T09:21:29;9.68;;;5.97;;
19525;SDS011;9907;42.676;26.348;2022-07-22T09:23:55;10.45;;;5.60;;
19525;SDS011;9907;42.676;26.348;2022-07-22T09:26:31;9.93;;;5.35;;
19525;SDS011;9907;42.676;26.348;2022-07-22T09:28:58;9.48;;;5.45;;
19525;SDS011;9907;42.676;26.348;2022-07-22T09:31:43;8.48;;;4.85;;
19525;SDS011;9907;42.676;26.348;2022-07-22T09:34:30;6.53;;;5.40;;
19525;SDS011;9907;42.676;26.348;2022-07-22T09:36:58;8.98;;;5.43;;
19525;SDS011;9907;42.676;26.348;2022-07-22T09:39:33;7.47;;;5.43;;
19525;SDS011;9907;42.676;26.348;2022-07-22T09:41:59;7.13;;;5.55;;
19525;SDS011;9907;42.676;26.348;2022-07-22T09:44:26;7.32;;;4.95;;
19525;SDS011;9907;42.676;26.348;2022-07-22T09:46:52;6.03;;;4.82;;
19525;SDS011;9907;42.676;26.348;2022-07-22T09:49:34;14.80;;;5.18;;
19525;SDS011;9907;42.676;26.348;2022-07-22T09:52:05;13.15;;;5.10;;
19525;SDS011;9907;42.676;26.348;2022-07-22T09:54:31;8.32;;;5.10;;
19525;SDS011;9907;42.676;26.348;2022-07-22T09:56:57;10.75;;;5.65;;
19525;SDS011;9907;42.676;26.348;2022-07-22T09:59:23;6.25;;;5.05;;
19525;SDS011;9907;42.676;26.348;2022-07-22T10:01:50;10.23;;;5.05;;
19525;SDS011;9907;42.676;26.348;2022-07-22T10:04:19;9.27;;;5.28;;
19525;SDS011;9907;42.676;26.348;2022-07-22T10:06:46;6.47;;;5.88;;
19525;SDS011;9907;42.676;26.348;2022-07-22T10:09:13;6.22;;;4.93;;
19525;SDS011;9907;42.676;26.348;2022-07-22T10:11:39;6.05;;;4.70;;
19525;SDS011;9907;42.676;26.348;2022-07-22T10:14:10;7.82;;;5.15;;
19525;SDS011;9907;42.676;26.348;2022-07-22T10:16:37;5.90;;;5.18;;
19525;SDS011;9907;42.676;26.348;2022-07-22T10:19:03;5.95;;;4.75;;
19525;SDS011;9907;42.676;26.348;2022-07-22T10:21:32;12.10;;;6.28;;
19525;SDS011;9907;42.676;26.348;2022-07-22T10:26:54;10.73;;;6.85;;
19525;SDS011;9907;42.676;26.348;2022-07-22T10:29:24;8.80;;;7.90;;
19525;SDS011;9907;42.676;26.348;2022-07-22T10:34:41;9.47;;;4.93;;
19525;SDS011;9907;42.676;26.348;2022-07-22T10:40:13;5.57;;;5.07;;
19525;SDS011;9907;42.676;26.348;2022-07-22T10:45:38;6.63;;;5.10;;
19525;SDS011;9907;42.676;26.348;2022-07-22T10:48:08;7.00;;;6.28;;
19525;SDS011;9907;42.676;26.348;2022-07-22T10:53:22;5.20;;;4.70;;
19525;SDS011;9907;42.676;26.348;2022-07-22T10:55:57;8.27;;;4.80;;
19525;SDS011;9907;42.676;26.348;2022-07-22T11:01:01;3.50;;;3.15;;
19525;SDS011;9907;42.676;26.348;2022-07-22T11:03:29;6.32;;;3.65;;
19525;SDS011;9907;42.676;26.348;2022-07-22T11:05:56;5.28;;;3.50;;
19525;SDS011;9907;42.676;26.348;2022-07-22T11:08:37;6.82;;;3.58;;
19525;SDS011;9907;42.676;26.348;2022-07-22T11:11:03;5.30;;;3.22;;
19525;SDS011;9907;42.676;26.348;2022-07-22T11:13:31;6.47;;;3.70;;
19525;SDS011;9907;42.676;26.348;2022-07-22T11:18:44;6.87;;;3.50;;
19525;SDS011;9907;42.676;26.348;2022-07-22T11:21:27;4.38;;;3.42;;
19525;SDS011;9907;42.676;26.348;2022-07-22T11:23:54;5.00;;;3.10;;
19525;SDS011;9907;42.676;26.348;2022-07-22T11:26:24;7.50;;;2.90;;
19525;SDS011;9907;42.676;26.348;2022-07-22T11:29:02;3.83;;;3.00;;
19525;SDS011;9907;42.676;26.348;2022-07-22T11:31:28;4.60;;;2.53;;
19525;SDS011;9907;42.676;26.348;2022-07-22T11:34:03;5.13;;;3.80;;
19525;SDS011;9907;42.676;26.348;2022-07-22T11:36:41;6.87;;;3.30;;
19525;SDS011;9907;42.676;26.348;2022-07-22T11:39:09;4.67;;;3.17;;
19525;SDS011;9907;42.676;26.348;2022-07-22T11:41:35;3.50;;;2.67;;
19525;SDS011;9907;42.676;26.348;2022-07-22T11:44:01;6.30;;;3.23;;
19525;SDS011;9907;42.676;26.348;2022-07-22T11:46:27;4.33;;;3.27;;
19525;SDS011;9907;42.676;26.348;2022-07-22T11:48:53;3.90;;;3.17;;
19525;SDS011;9907;42.676;26.348;2022-07-22T11:51:26;4.60;;;2.80;;
19525;SDS011;9907;42.676;26.348;2022-07-22T11:53:56;5.33;;;3.03;;
19525;SDS011;9907;42.676;26.348;2022-07-22T11:56:23;3.80;;;2.90;;
19525;SDS011;9907;42.676;26.348;2022-07-22T11:58:49;3.87;;;2.70;;
19525;SDS011;9907;42.676;26.348;2022-07-22T12:01:19;4.70;;;2.77;;
19525;SDS011;9907;42.676;26.348;2022-07-22T12:03:49;2.97;;;2.70;;
19525;SDS011;9907;42.676;26.348;2022-07-22T12:06:17;3.93;;;2.57;;
19525;SDS011;9907;42.676;26.348;2022-07-22T12:08:44;4.10;;;2.67;;
19525;SDS011;9907;42.676;26.348;2022-07-22T12:11:12;3.57;;;3.07;;
19525;SDS011;9907;42.676;26.348;2022-07-22T12:13:43;4.60;;;2.93;;
19525;SDS011;9907;42.676;26.348;2022-07-22T12:16:26;5.30;;;2.60;;
19525;SDS011;9907;42.676;26.348;2022-07-22T12:18:53;3.60;;;2.57;;
19525;SDS011;9907;42.676;26.348;2022-07-22T12:21:19;4.77;;;2.87;;
19525;SDS011;9907;42.676;26.348;2022-07-22T12:23:53;4.83;;;3.30;;
19525;SDS011;9907;42.676;26.348;2022-07-22T12:26:35;3.53;;;3.22;;
19525;SDS011;9907;42.676;26.348;2022-07-22T12:32:09;4.73;;;3.07;;
19525;SDS011;9907;42.676;26.348;2022-07-22T12:34:45;3.73;;;2.93;;
19525;SDS011;9907;42.676;26.348;2022-07-22T12:37:22;8.17;;;4.37;;
19525;SDS011;9907;42.676;26.348;2022-07-22T12:39:56;4.00;;;2.57;;
19525;SDS011;9907;42.676;26.348;2022-07-22T12:42:25;3.07;;;2.77;;
19525;SDS011;9907;42.676;26.348;2022-07-22T12:44:59;3.77;;;2.70;;
19525;SDS011;9907;42.676;26.348;2022-07-22T12:50:27;3.73;;;2.50;;
19525;SDS011;9907;42.676;26.348;2022-07-22T12:53:01;7.33;;;2.90;;
19525;SDS011;9907;42.676;26.348;2022-07-22T12:55:41;2.60;;;2.03;;
19525;SDS011;9907;42.676;26.348;2022-07-22T12:58:09;2.97;;;2.60;;
19525;SDS011;9907;42.676;26.348;2022-07-22T13:00:36;4.70;;;2.70;;
19525;SDS011;9907;42.676;26.348;2022-07-22T13:03:03;3.03;;;2.70;;
19525;SDS011;9907;42.676;26.348;2022-07-22T13:05:29;2.53;;;2.33;;
19525;SDS011;9907;42.676;26.348;2022-07-22T13:07:55;2.90;;;2.27;;
19525;SDS011;9907;42.676;26.348;2022-07-22T13:10:21;4.03;;;2.40;;
19525;SDS011;9907;42.676;26.348;2022-07-22T13:12:48;4.60;;;2.53;;
19525;SDS011;9907;42.676;26.348;2022-07-22T13:15:14;6.07;;;2.40;;
19525;SDS011;9907;42.676;26.348;2022-07-22T13:17:40;5.63;;;3.63;;
19525;SDS011;9907;42.676;26.348;2022-07-22T13:20:07;3.83;;;2.60;;
19525;SDS011;9907;42.676;26.348;2022-07-22T13:22:33;7.10;;;2.50;;
19525;SDS011;9907;42.676;26.348;2022-07-22T13:24:59;3.20;;;2.13;;
19525;SDS011;9907;42.676;26.348;2022-07-22T13:27:25;1.90;;;1.80;;
19525;SDS011;9907;42.676;26.348;2022-07-22T13:29:50;3.63;;;2.00;;
19525;SDS011;9907;42.676;26.348;2022-07-22T13:32:16;3.40;;;2.13;;
19525;SDS011;9907;42.676;26.348;2022-07-22T13:34:41;4.43;;;1.93;;
19525;SDS011;9907;42.676;26.348;2022-07-22T13:37:07;2.10;;;1.90;;
19525;SDS011;9907;42.676;26.348;2022-07-22T13:39:33;4.20;;;2.37;;
19525;SDS011;9907;42.676;26.348;2022-07-22T13:41:58;2.60;;;2.20;;
19525;SDS011;9907;42.676;26.348;2022-07-22T13:44:24;3.90;;;2.20;;
19525;SDS011;9907;42.676;26.348;2022-07-22T13:46:49;2.40;;;2.03;;
19525;SDS011;9907;42.676;26.348;2022-07-22T13:49:15;2.80;;;2.50;;
19525;SDS011;9907;42.676;26.348;2022-07-22T13:51:40;3.67;;;2.10;;
19525;SDS011;9907;42.676;26.348;2022-07-22T13:54:06;2.50;;;2.00;;
19525;SDS011;9907;42.676;26.348;2022-07-22T13:56:32;3.57;;;1.90;;
19525;SDS011;9907;42.676;26.348;2022-07-22T13:58:59;3.37;;;2.30;;
19525;SDS011;9907;42.676;26.348;2022-07-22T14:01:25;4.33;;;2.00;;
19525;SDS011;9907;42.676;26.348;2022-07-22T14:03:52;4.07;;;1.90;;
19525;SDS011;9907;42.676;26.348;2022-07-22T14:06:17;3.33;;;1.67;;
19525;SDS011;9907;42.676;26.348;2022-07-22T14:08:44;2.60;;;1.70;;
19525;SDS011;9907;42.676;26.348;2022-07-22T14:11:10;4.10;;;2.40;;
19525;SDS011;9907;42.676;26.348;2022-07-22T14:13:35;3.83;;;1.87;;
19525;SDS011;9907;42.676;26.348;2022-07-22T14:16:01;4.23;;;2.17;;
19525;SDS011;9907;42.676;26.348;2022-07-22T14:18:46;10.03;;;8.80;;
19525;SDS011;9907;42.676;26.348;2022-07-22T14:21:12;4.40;;;3.40;;
19525;SDS011;9907;42.676;26.348;2022-07-22T14:23:38;3.20;;;2.30;;
19525;SDS011;9907;42.676;26.348;2022-07-22T14:26:03;2.43;;;1.93;;
19525;SDS011;9907;42.676;26.348;2022-07-22T14:28:29;3.43;;;2.03;;
19525;SDS011;9907;42.676;26.348;2022-07-22T14:30:55;3.70;;;1.97;;
19525;SDS011;9907;42.676;26.348;2022-07-22T14:33:20;3.60;;;2.23;;
19525;SDS011;9907;42.676;26.348;2022-07-22T14:35:46;4.50;;;2.50;;
19525;SDS011;9907;42.676;26.348;2022-07-22T14:38:11;2.50;;;2.30;;
19525;SDS011;9907;42.676;26.348;2022-07-22T14:40:37;7.30;;;2.67;;
19525;SDS011;9907;42.676;26.348;2022-07-22T14:43:03;3.70;;;2.43;;
19525;SDS011;9907;42.676;26.348;2022-07-22T14:45:28;7.10;;;2.87;;
19525;SDS011;9907;42.676;26.348;2022-07-22T14:47:54;3.73;;;2.40;;
19525;SDS011;9907;42.676;26.348;2022-07-22T14:50:19;5.00;;;2.80;;
19525;SDS011;9907;42.676;26.348;2022-07-22T14:52:45;3.50;;;2.83;;
19525;SDS011;9907;42.676;26.348;2022-07-22T14:55:11;2.60;;;2.13;;
19525;SDS011;9907;42.676;26.348;2022-07-22T14:57:37;3.63;;;2.90;;
19525;SDS011;9907;42.676;26.348;2022-07-22T15:00:02;6.43;;;2.83;;
19525;SDS011;9907;42.676;26.348;2022-07-22T15:02:28;6.53;;;2.50;;
19525;SDS011;9907;42.676;26.348;2022-07-22T15:04:54;3.97;;;2.30;;
19525;SDS011;9907;42.676;26.348;2022-07-22T15:07:22;3.90;;;2.60;;
19525;SDS011;9907;42.676;26.348;2022-07-22T15:09:47;5.30;;;3.80;;
19525;SDS011;9907;42.676;26.348;2022-07-22T15:12:13;3.47;;;2.83;;
19525;SDS011;9907;42.676;26.348;2022-07-22T15:14:39;6.87;;;3.57;;
19525;SDS011;9907;42.676;26.348;2022-07-22T15:17:04;5.93;;;4.17;;
19525;SDS011;9907;42.676;26.348;2022-07-22T15:19:30;4.67;;;2.40;;
19525;SDS011;9907;42.676;26.348;2022-07-22T15:21:55;8.37;;;5.23;;
19525;SDS011;9907;42.676;26.348;2022-07-22T15:24:21;4.33;;;2.97;;
19525;SDS011;9907;42.676;26.348;2022-07-22T15:26:47;10.37;;;5.20;;
19525;SDS011;9907;42.676;26.348;2022-07-22T15:29:12;4.27;;;3.87;;
19525;SDS011;9907;42.676;26.348;2022-07-22T15:31:38;8.47;;;6.47;;
19525;SDS011;9907;42.676;26.348;2022-07-22T15:34:04;5.83;;;4.33;;
19525;SDS011;9907;42.676;26.348;2022-07-22T15:36:30;7.63;;;4.23;;
19525;SDS011;9907;42.676;26.348;2022-07-22T15:38:55;6.65;;;3.70;;
19525;SDS011;9907;42.676;26.348;2022-07-22T15:41:23;5.67;;;3.30;;
19525;SDS011;9907;42.676;26.348;2022-07-22T15:43:49;5.27;;;3.27;;
19525;SDS011;9907;42.676;26.348;2022-07-22T15:46:15;2.88;;;2.10;;
19525;SDS011;9907;42.676;26.348;2022-07-22T15:48:40;10.33;;;5.10;;
19525;SDS011;9907;42.676;26.348;2022-07-22T15:51:06;4.23;;;2.67;;
19525;SDS011;9907;42.676;26.348;2022-07-22T15:53:33;3.57;;;2.73;;
19525;SDS011;9907;42.676;26.348;2022-07-22T15:55:58;4.80;;;2.80;;
19525;SDS011;9907;42.676;26.348;2022-07-22T15:58:24;6.50;;;2.93;;
19525;SDS011;9907;42.676;26.348;2022-07-22T16:01:08;3.22;;;2.20;;
19525;SDS011;9907;42.676;26.348;2022-07-22T16:03:36;5.13;;;3.10;;
19525;SDS011;9907;42.676;26.348;2022-07-22T16:06:02;4.65;;;3.03;;
19525;SDS011;9907;42.676;26.348;2022-07-22T16:08:28;5.80;;;3.42;;